createdAt,value
2018-06-25T00:01:46.272Z,86.98
2018-06-25T00:04:14.537Z,86.99
2018-06-25T00:06:42.842Z,86.75
2018-06-25T00:09:11.565Z,88.00
2018-06-25T00:11:40.069Z,88.12
2018-06-25T00:14:08.317Z,87.98
2018-06-25T00:16:36.677Z,88.40
2018-06-25T00:19:05.013Z,87.93
2018-06-25T00:21:33.284Z,87.90
2018-06-25T00:24:01.566Z,88.06
2018-06-25T00:26:29.836Z,87.55
2018-06-25T00:28:58.113Z,86.72
2018-06-25T00:31:26.365Z,86.96
2018-06-25T00:33:54.649Z,87.61
2018-06-25T00:36:23.125Z,87.98
2018-06-25T00:38:51.401Z,87.34
2018-06-25T00:41:19.724Z,87.37
2018-06-25T00:43:47.987Z,87.40
2018-06-25T00:46:16.233Z,86.99
2018-06-25T00:48:44.577Z,87.07
2018-06-25T00:51:12.870Z,87.62
2018-06-25T00:53:41.241Z,87.50
2018-06-25T00:56:09.590Z,87.79
2018-06-25T00:58:49.146Z,87.86
2018-06-25T01:01:17.423Z,87.54
2018-06-25T01:03:45.733Z,87.62
2018-06-25T01:06:14.110Z,86.94
2018-06-25T01:08:42.389Z,87.10
2018-06-25T01:11:10.682Z,86.69
2018-06-25T01:13:38.936Z,86.83
2018-06-25T01:16:07.253Z,87.63
2018-06-25T01:18:35.504Z,88.00
2018-06-25T01:21:03.821Z,87.72
2018-06-25T01:23:32.069Z,88.88
2018-06-25T01:26:00.369Z,88.36
2018-06-25T01:28:28.644Z,88.41
2018-06-25T01:30:56.929Z,87.68
2018-06-25T01:33:25.178Z,87.96
2018-06-25T01:35:53.508Z,87.99
2018-06-25T01:38:21.760Z,87.47
2018-06-25T01:40:50.034Z,87.75
2018-06-25T01:43:18.330Z,87.89
2018-06-25T01:45:46.613Z,87.49
2018-06-25T01:48:14.864Z,87.32
2018-06-25T01:50:43.160Z,88.01
2018-06-25T01:53:11.572Z,88.47
2018-06-25T01:55:39.861Z,89.08
2018-06-25T01:58:08.121Z,89.17
2018-06-25T02:00:36.453Z,89.42
2018-06-25T02:03:04.729Z,89.20
2018-06-25T02:05:32.996Z,89.00
2018-06-25T02:08:01.297Z,88.48
2018-06-25T02:10:29.556Z,88.25
2018-06-25T02:12:58.110Z,88.20
2018-06-25T02:15:26.369Z,88.53
2018-06-25T02:17:54.774Z,88.94
2018-06-25T02:20:23.041Z,88.84
2018-06-25T02:22:51.361Z,88.29
2018-06-25T02:25:19.625Z,88.27
2018-06-25T02:27:47.921Z,87.49
2018-06-25T02:30:16.193Z,87.14
2018-06-25T02:32:44.491Z,87.08
2018-06-25T02:35:12.788Z,87.03
2018-06-25T02:37:41.113Z,86.92
2018-06-25T02:40:09.419Z,87.56
2018-06-25T02:42:37.719Z,86.78
2018-06-25T02:45:06.197Z,87.68
2018-06-25T02:47:34.508Z,87.83
2018-06-25T02:50:02.836Z,88.37
2018-06-25T02:52:31.144Z,88.74
2018-06-25T02:54:59.548Z,88.91
2018-06-25T02:57:27.809Z,88.34
2018-06-25T02:59:56.107Z,88.23
2018-06-25T03:02:24.371Z,88.21
2018-06-25T03:04:52.671Z,88.20
2018-06-25T03:07:21.129Z,88.33
2018-06-25T03:09:49.447Z,88.96
2018-06-25T03:12:17.725Z,88.96
2018-06-25T03:14:46.098Z,88.21
2018-06-25T03:17:14.465Z,88.79
2018-06-25T03:19:42.770Z,88.41
2018-06-25T03:22:11.070Z,88.91
2018-06-25T03:24:39.370Z,89.12
2018-06-25T03:27:07.653Z,88.96
2018-06-25T03:29:35.975Z,89.34
2018-06-25T03:32:04.270Z,88.88
2018-06-25T03:34:32.589Z,88.71
2018-06-25T03:37:00.855Z,88.25
2018-06-25T03:39:29.169Z,87.73
2018-06-25T03:41:57.445Z,87.67
2018-06-25T03:44:25.846Z,86.75
2018-06-25T03:46:54.134Z,86.48
2018-06-25T03:49:22.468Z,86.48
2018-06-25T03:51:50.736Z,86.72
2018-06-25T03:54:19.065Z,86.89
2018-06-25T03:56:47.341Z,86.40
2018-06-25T03:59:15.667Z,87.20
2018-06-25T04:01:43.966Z,86.99
2018-06-25T04:04:12.240Z,86.95
2018-06-25T04:06:40.533Z,86.70
2018-06-25T04:09:10.553Z,86.85
2018-06-25T04:11:39.149Z,86.81
2018-06-25T04:14:07.502Z,86.33
2018-06-25T04:16:35.809Z,86.86
2018-06-25T04:19:06.041Z,86.89
2018-06-25T04:21:37.523Z,86.42
2018-06-25T04:24:06.123Z,85.75
2018-06-25T04:26:34.641Z,85.92
2018-06-25T04:29:03.305Z,85.48
2018-06-25T04:31:31.609Z,85.40
2018-06-25T04:34:00.058Z,84.85
2018-06-25T04:36:28.565Z,84.52
2018-06-25T04:38:56.839Z,84.56
2018-06-25T04:41:25.185Z,84.96
2018-06-25T04:43:53.539Z,85.51
2018-06-25T04:46:21.789Z,85.06
2018-06-25T04:48:50.101Z,84.26
2018-06-25T04:51:18.471Z,84.48
2018-06-25T04:53:46.896Z,84.46
2018-06-25T04:56:15.166Z,83.71
2018-06-25T04:58:43.449Z,84.54
2018-06-25T05:01:11.767Z,85.47
2018-06-25T05:03:40.045Z,85.91
2018-06-25T05:06:08.296Z,84.79
2018-06-25T05:08:36.597Z,84.32
2018-06-25T05:11:04.861Z,84.96
2018-06-25T05:13:33.186Z,84.50
2018-06-25T05:16:01.470Z,84.06
2018-06-25T05:18:29.828Z,81.86
2018-06-25T05:20:58.069Z,81.43
2018-06-25T05:23:26.352Z,82.33
2018-06-25T05:25:54.782Z,82.91
2018-06-25T05:28:23.137Z,81.52
2018-06-25T05:30:51.415Z,81.18
2018-06-25T05:33:19.812Z,82.01
2018-06-25T05:35:48.097Z,81.77
2018-06-25T05:38:16.433Z,81.36
2018-06-25T05:40:44.829Z,81.46
2018-06-25T05:43:13.084Z,81.26
2018-06-25T05:45:41.385Z,80.12
2018-06-25T05:48:09.738Z,80.83
2018-06-25T05:50:38.041Z,81.14
2018-06-25T05:53:06.290Z,81.16
2018-06-25T05:55:34.569Z,79.65
2018-06-25T05:58:02.825Z,78.11
2018-06-25T06:00:31.121Z,78.51
2018-06-25T06:02:59.497Z,78.40
2018-06-25T06:05:27.769Z,78.66
2018-06-25T06:07:56.030Z,78.94
2018-06-25T06:10:24.309Z,79.94
2018-06-25T06:12:52.574Z,79.46
2018-06-25T06:15:20.866Z,79.02
2018-06-25T06:17:49.139Z,78.21
2018-06-25T06:20:17.421Z,77.97
2018-06-25T06:22:45.697Z,77.21
2018-06-25T06:25:14.019Z,77.29
2018-06-25T06:27:42.913Z,77.69
2018-06-25T06:30:11.223Z,77.09
2018-06-25T06:32:39.470Z,78.61
2018-06-25T06:35:07.760Z,77.55
2018-06-25T06:37:36.117Z,75.48
2018-06-25T06:40:04.476Z,75.50
2018-06-25T06:42:32.861Z,75.10
2018-06-25T06:45:01.125Z,76.53
2018-06-25T06:47:29.433Z,77.63
2018-06-25T06:49:57.716Z,76.44
2018-06-25T06:52:26.003Z,78.14
2018-06-25T06:54:54.273Z,77.85
2018-06-25T06:57:22.555Z,76.92
2018-06-25T06:59:50.805Z,76.25
2018-06-25T07:02:19.133Z,76.54
2018-06-25T07:04:47.475Z,76.13
2018-06-25T07:07:15.750Z,75.57
2018-06-25T07:09:44.025Z,74.46
2018-06-25T07:12:12.341Z,74.86
2018-06-25T07:14:40.585Z,75.76
2018-06-25T07:17:08.833Z,76.45
2018-06-25T07:19:37.109Z,75.77
2018-06-25T07:22:05.369Z,75.03
2018-06-25T07:24:33.653Z,73.83
2018-06-25T07:27:02.007Z,73.83
2018-06-25T07:29:30.293Z,72.52
2018-06-25T07:31:58.741Z,71.43
2018-06-25T07:35:30.221Z,72.63
2018-06-25T07:37:58.504Z,72.55
2018-06-25T07:40:26.783Z,73.25
2018-06-25T07:42:55.066Z,73.93
2018-06-25T07:45:23.421Z,73.95
2018-06-25T07:47:51.702Z,73.28
2018-06-25T07:50:20.041Z,71.32
2018-06-25T07:52:48.567Z,71.52
2018-06-25T07:55:16.858Z,72.05
2018-06-25T07:57:45.125Z,70.47
2018-06-25T08:00:13.495Z,69.51
2018-06-25T08:02:41.750Z,69.83
2018-06-25T08:05:10.441Z,72.01
2018-06-25T08:07:38.748Z,71.55
2018-06-25T08:10:07.183Z,69.94
2018-06-25T08:12:35.466Z,69.40
2018-06-25T08:15:03.867Z,69.95
2018-06-25T08:17:32.129Z,70.54
2018-06-25T08:20:00.453Z,69.85
2018-06-25T08:22:28.730Z,69.13
2018-06-25T08:24:57.022Z,69.54
2018-06-25T08:27:25.396Z,67.64
2018-06-25T08:29:53.746Z,69.12
2018-06-25T08:32:22.226Z,68.87
2018-06-25T08:34:50.486Z,68.37
2018-06-25T08:37:18.788Z,68.40
2018-06-25T08:39:47.041Z,65.96
2018-06-25T08:42:15.379Z,65.67
2018-06-25T08:44:43.609Z,67.57
2018-06-25T08:47:11.897Z,69.18
2018-06-25T08:49:40.190Z,69.19
2018-06-25T08:52:08.499Z,69.03
2018-06-25T08:54:37.045Z,69.57
2018-06-25T08:57:05.380Z,68.42
2018-06-25T08:59:33.657Z,68.87
2018-06-25T09:02:01.944Z,66.87
2018-06-25T09:04:30.395Z,65.48
2018-06-25T09:06:58.818Z,67.84
2018-06-25T09:09:27.662Z,67.88
2018-06-25T09:11:56.009Z,66.57
2018-06-25T09:14:24.277Z,67.61
2018-06-25T09:16:52.585Z,67.91
2018-06-25T09:19:20.857Z,68.83
2018-06-25T09:21:49.185Z,68.78
2018-06-25T09:24:17.464Z,67.33
2018-06-25T09:26:45.745Z,66.52
2018-06-25T09:29:14.218Z,63.83
2018-06-25T09:31:42.493Z,64.29
2018-06-25T09:34:16.097Z,62.22
2018-06-25T09:36:44.554Z,64.29
2018-06-25T09:39:13.308Z,61.38
2018-06-25T09:41:41.701Z,61.36
2018-06-25T09:44:10.973Z,59.96
2018-06-25T09:46:39.429Z,60.41
2018-06-25T09:49:09.053Z,60.33
2018-06-25T09:51:37.313Z,61.66
2018-06-25T09:54:05.675Z,60.47
2018-06-25T09:56:33.951Z,61.10
2018-06-25T09:59:02.258Z,61.24
2018-06-25T10:01:30.554Z,59.95
2018-06-25T10:03:58.863Z,58.70
2018-06-25T10:06:27.159Z,57.70
2018-06-25T10:08:55.441Z,58.79
2018-06-25T10:11:23.709Z,57.19
2018-06-25T10:13:51.997Z,56.51
2018-06-25T10:16:20.289Z,53.49
2018-06-25T10:18:48.590Z,52.41
2018-06-25T10:21:16.883Z,55.29
2018-06-25T10:23:45.142Z,57.07
2018-06-25T10:26:13.419Z,56.58
2018-06-25T10:28:41.731Z,56.02
2018-06-25T10:31:10.373Z,55.31
2018-06-25T10:33:38.640Z,56.95
2018-06-25T10:36:06.979Z,57.59
2018-06-25T10:38:35.346Z,58.37
2018-06-25T10:41:03.657Z,57.52
2018-06-25T10:43:31.927Z,56.50
2018-06-25T10:46:00.261Z,55.93
2018-06-25T10:48:28.545Z,57.79
2018-06-25T10:50:56.873Z,57.50
2018-06-25T10:53:25.134Z,56.04
2018-06-25T10:55:53.492Z,55.87
2018-06-25T10:58:21.745Z,54.65
2018-06-25T11:00:50.042Z,52.83
2018-06-25T11:03:18.289Z,54.80
2018-06-25T11:05:46.580Z,56.81
2018-06-25T11:08:14.836Z,56.35
2018-06-25T11:10:43.142Z,55.41
2018-06-25T11:13:11.410Z,55.44
2018-06-25T11:15:39.713Z,56.14
2018-06-25T11:18:08.012Z,56.88
2018-06-25T11:20:36.349Z,57.27
2018-06-25T11:23:04.610Z,55.67
2018-06-25T11:25:32.909Z,55.38
2018-06-25T11:28:01.190Z,53.70
2018-06-25T11:30:29.493Z,54.33
2018-06-25T11:32:57.788Z,56.61
2018-06-25T11:35:32.529Z,56.84
2018-06-25T11:38:00.828Z,56.87
2018-06-25T11:40:29.106Z,56.25
2018-06-25T11:42:57.411Z,56.29
2018-06-25T11:45:25.678Z,55.50
2018-06-25T11:47:53.972Z,56.24
2018-06-25T11:50:22.304Z,56.77
2018-06-25T11:52:50.605Z,55.10
2018-06-25T11:55:18.865Z,54.45
2018-06-25T11:57:47.140Z,54.77
2018-06-25T12:00:15.441Z,52.90
2018-06-25T12:02:43.906Z,54.57
2018-06-25T12:05:12.025Z,55.64
2018-06-25T12:07:40.309Z,54.37
2018-06-25T12:10:08.585Z,53.66
2018-06-25T12:12:37.057Z,52.26
2018-06-25T12:15:05.478Z,53.66
2018-06-25T12:17:33.771Z,53.58
2018-06-25T12:20:02.141Z,53.43
2018-06-25T12:22:30.377Z,52.84
2018-06-25T12:24:58.657Z,51.58
2018-06-25T12:27:26.924Z,52.02
2018-06-25T12:29:55.211Z,52.28
2018-06-25T12:32:23.480Z,51.07
2018-06-25T12:34:51.761Z,50.90
2018-06-25T12:37:20.023Z,51.43
2018-06-25T12:39:48.317Z,50.46
2018-06-25T12:42:16.625Z,49.83
2018-06-25T12:44:44.935Z,50.70
2018-06-25T12:47:13.186Z,51.61
2018-06-25T12:49:41.534Z,53.28
2018-06-25T12:52:09.790Z,53.82
2018-06-25T12:54:38.074Z,54.31
2018-06-25T12:57:06.442Z,52.98
2018-06-25T12:59:34.734Z,55.33
2018-06-25T13:02:03.041Z,54.33
2018-06-25T13:04:31.324Z,54.35
2018-06-25T13:06:59.954Z,55.07
2018-06-25T13:09:28.224Z,56.81
2018-06-25T13:11:56.557Z,57.10
2018-06-25T13:14:24.830Z,57.36
2018-06-25T13:16:53.532Z,57.71
2018-06-25T13:19:21.825Z,56.73
2018-06-25T13:21:50.129Z,59.32
2018-06-25T13:24:18.422Z,58.67
2018-06-25T13:26:46.749Z,60.48
2018-06-25T13:29:15.015Z,61.27
2018-06-25T13:31:43.312Z,60.62
2018-06-25T13:34:11.577Z,61.26
2018-06-25T13:36:39.866Z,60.87
2018-06-25T13:39:08.961Z,61.89
2018-06-25T13:41:37.273Z,62.92
2018-06-25T13:44:05.808Z,63.41
2018-06-25T13:46:34.375Z,62.75
2018-06-25T13:49:02.765Z,63.13
2018-06-25T13:51:31.138Z,63.94
2018-06-25T13:53:59.513Z,63.73
2018-06-25T13:56:27.930Z,63.94
2018-06-25T13:58:56.209Z,64.92
2018-06-25T14:01:24.498Z,64.20
2018-06-25T14:03:52.785Z,63.83
2018-06-25T14:06:21.078Z,64.90
2018-06-25T14:08:49.349Z,64.55
2018-06-25T14:11:17.657Z,65.13
2018-06-25T14:13:45.965Z,64.90
2018-06-25T14:16:14.265Z,65.79
2018-06-25T14:18:42.673Z,66.05
2018-06-25T14:21:10.948Z,65.44
2018-06-25T14:23:43.433Z,64.61
2018-06-25T14:26:11.929Z,65.60
2018-06-25T14:28:40.263Z,66.67
2018-06-25T14:31:13.992Z,67.54
2018-06-25T14:33:43.612Z,66.79
2018-06-25T14:36:11.926Z,66.19
2018-06-25T14:38:40.224Z,66.68
2018-06-25T14:41:08.510Z,66.77
2018-06-25T14:43:36.809Z,66.76
2018-06-25T14:46:05.601Z,65.96
2018-06-25T14:48:33.965Z,67.38
2018-06-25T14:51:02.904Z,68.93
2018-06-25T14:53:31.220Z,69.77
2018-06-25T14:55:59.594Z,70.05
2018-06-25T14:58:27.877Z,69.58
2018-06-25T15:00:56.229Z,69.54
2018-06-25T15:03:24.489Z,68.53
2018-06-25T15:05:52.929Z,68.66
2018-06-25T15:08:21.205Z,68.66
2018-06-25T15:10:49.585Z,69.26
2018-06-25T15:13:17.906Z,67.32
2018-06-25T15:15:46.161Z,67.75
2018-06-25T15:18:14.613Z,68.01
2018-06-25T15:20:42.909Z,69.81
2018-06-25T15:23:11.237Z,69.75
2018-06-25T15:25:39.593Z,70.93
2018-06-25T15:28:07.869Z,70.43
2018-06-25T15:30:36.146Z,70.32
2018-06-25T15:33:04.470Z,69.67
2018-06-25T15:35:32.760Z,69.55
2018-06-25T15:38:01.043Z,69.08
2018-06-25T15:40:29.367Z,68.60
2018-06-25T15:42:57.637Z,68.40
2018-06-25T15:45:25.941Z,68.66
2018-06-25T15:47:54.275Z,68.67
2018-06-25T15:50:22.588Z,69.29
2018-06-25T15:52:50.881Z,68.87
2018-06-25T15:55:19.189Z,68.96
2018-06-25T15:57:47.494Z,69.91
2018-06-25T16:00:15.809Z,71.81
2018-06-25T16:02:45.113Z,72.48
2018-06-25T16:05:13.473Z,72.37
2018-06-25T16:07:42.380Z,72.22
2018-06-25T16:10:10.885Z,72.01
2018-06-25T16:12:39.185Z,71.26
2018-06-25T16:15:07.517Z,70.90
2018-06-25T16:17:35.809Z,71.38
2018-06-25T16:20:04.234Z,70.93
2018-06-25T16:22:32.539Z,71.19
2018-06-25T16:25:00.809Z,71.23
2018-06-25T16:27:29.121Z,70.03
2018-06-25T16:29:57.438Z,70.58
2018-06-25T16:32:25.913Z,70.88
2018-06-25T16:34:54.175Z,71.12
2018-06-25T16:37:22.521Z,70.82
2018-06-25T16:39:50.846Z,71.04
2018-06-25T16:42:19.120Z,71.87
2018-06-25T16:44:47.405Z,72.53
2018-06-25T16:47:15.762Z,72.08
2018-06-25T16:49:44.104Z,73.61
2018-06-25T16:52:12.446Z,73.19
2018-06-25T16:54:40.778Z,73.41
2018-06-25T16:57:09.159Z,73.08
2018-06-25T16:59:37.462Z,72.47
2018-06-25T17:02:05.773Z,72.90
2018-06-25T17:04:34.085Z,73.06
2018-06-25T17:07:02.495Z,72.52
2018-06-25T17:09:30.804Z,72.17
2018-06-25T17:11:59.088Z,72.46
2018-06-25T17:14:27.393Z,72.46
2018-06-25T17:16:55.869Z,73.35
2018-06-25T17:19:24.177Z,73.68
2018-06-25T17:21:52.441Z,74.34
2018-06-25T17:24:20.769Z,74.29
2018-06-25T17:26:49.037Z,73.57
2018-06-25T17:29:17.354Z,73.09
2018-06-25T17:31:45.653Z,71.91
2018-06-25T17:34:13.905Z,70.93
2018-06-25T17:36:42.185Z,70.43
2018-06-25T17:39:10.470Z,69.76
2018-06-25T17:41:38.753Z,69.96
2018-06-25T17:44:07.010Z,71.65
2018-06-25T17:46:35.308Z,72.58
2018-06-25T17:49:03.609Z,73.06
2018-06-25T17:51:31.946Z,72.75
2018-06-25T17:54:00.221Z,72.95
2018-06-25T17:56:28.531Z,72.97
2018-06-25T17:58:56.863Z,71.55
2018-06-25T18:01:25.173Z,71.33
2018-06-25T18:03:53.444Z,72.28
2018-06-25T18:06:21.786Z,72.34
2018-06-25T18:08:50.057Z,73.59
2018-06-25T18:11:18.364Z,73.93
2018-06-25T18:13:46.625Z,73.20
2018-06-25T18:16:14.929Z,72.57
2018-06-25T18:18:43.197Z,73.29
2018-06-25T18:21:11.473Z,72.65
2018-06-25T18:23:39.807Z,72.19
2018-06-25T18:26:08.081Z,73.51
2018-06-25T18:28:36.389Z,74.36
2018-06-25T18:31:04.667Z,74.84
2018-06-25T18:33:32.984Z,74.26
2018-06-25T18:36:01.250Z,74.40
2018-06-25T18:38:29.702Z,74.71
2018-06-25T18:40:58.365Z,75.09
2018-06-25T18:43:26.665Z,75.17
2018-06-25T18:45:54.980Z,75.23
2018-06-25T18:48:23.427Z,75.23
2018-06-25T18:50:51.736Z,74.69
2018-06-25T18:53:20.024Z,74.38
2018-06-25T18:55:48.537Z,74.96
2018-06-25T18:58:16.858Z,74.85
2018-06-25T19:00:45.301Z,75.82
2018-06-25T19:03:13.640Z,76.10
2018-06-25T19:05:41.943Z,76.95
2018-06-25T19:08:10.185Z,77.17
2018-06-25T19:10:38.473Z,76.58
2018-06-25T19:13:06.816Z,77.15
2018-06-25T19:15:35.245Z,77.83
2018-06-25T19:18:03.746Z,77.15
2018-06-25T19:20:32.041Z,76.80
2018-06-25T19:23:00.306Z,75.82
2018-06-25T19:25:28.613Z,76.02
2018-06-25T19:27:57.057Z,77.04
2018-06-25T19:30:25.397Z,76.90
2018-06-25T19:32:53.671Z,76.37
2018-06-25T19:35:21.949Z,76.52
2018-06-25T19:37:50.220Z,76.22
2018-06-25T19:40:18.574Z,76.69
2018-06-25T19:42:47.126Z,76.66
2018-06-25T19:45:15.441Z,77.12
2018-06-25T19:47:43.701Z,77.01
2018-06-25T19:50:12.013Z,77.62
2018-06-25T19:52:40.284Z,77.39
2018-06-25T19:55:08.574Z,77.75
2018-06-25T19:57:36.829Z,78.42
2018-06-25T20:00:05.292Z,78.30
2018-06-25T20:02:33.607Z,77.78
2018-06-25T20:05:01.910Z,78.26
2018-06-25T20:07:30.196Z,78.54
2018-06-25T20:09:58.483Z,78.55
2018-06-25T20:12:26.847Z,78.76
2018-06-25T20:14:55.070Z,79.54
2018-06-25T20:17:23.408Z,79.58
2018-06-25T20:19:51.735Z,79.31
2018-06-25T20:22:20.020Z,79.90
2018-06-25T20:24:48.289Z,79.68
2018-06-25T20:27:16.572Z,79.95
2018-06-25T20:29:44.830Z,79.38
2018-06-25T20:32:13.133Z,78.77
2018-06-25T20:34:41.443Z,78.12
2018-06-25T20:37:09.741Z,78.74
2018-06-25T20:39:37.997Z,78.83
2018-06-25T20:42:06.341Z,79.44
2018-06-25T20:44:34.629Z,78.35
2018-06-25T20:47:03.119Z,78.14
2018-06-25T20:49:31.231Z,77.88
2018-06-25T20:51:59.529Z,78.47
2018-06-25T20:54:27.788Z,79.19
2018-06-25T20:56:56.270Z,79.35
2018-06-25T20:59:24.467Z,79.26
2018-06-25T21:01:53.046Z,80.02
2018-06-25T21:04:21.388Z,80.42
2018-06-25T21:06:49.713Z,80.93
2018-06-25T21:09:18.082Z,80.85
2018-06-25T21:11:46.359Z,81.58
2018-06-25T21:14:14.646Z,81.54
2018-06-25T21:16:42.988Z,81.82
2018-06-25T21:19:11.229Z,81.48
2018-06-25T21:21:39.657Z,81.78
2018-06-25T21:24:07.953Z,81.39
2018-06-25T21:26:36.661Z,81.90
2018-06-25T21:29:05.460Z,81.07
2018-06-25T21:31:33.716Z,82.58
2018-06-25T21:34:02.010Z,82.37
2018-06-25T21:36:30.336Z,82.03
2018-06-25T21:38:58.647Z,81.93
2018-06-25T21:41:26.905Z,81.89
2018-06-25T21:43:55.181Z,82.28
2018-06-25T21:46:23.437Z,81.27
2018-06-25T21:48:51.722Z,81.82
2018-06-25T21:51:20.117Z,81.39
2018-06-25T21:53:48.406Z,81.91
2018-06-25T21:56:16.662Z,81.39
2018-06-25T21:58:44.977Z,83.07
2018-06-25T22:01:13.281Z,83.48
2018-06-25T22:03:41.904Z,82.98
2018-06-25T22:06:10.257Z,83.01
2018-06-25T22:08:38.530Z,83.06
2018-06-25T22:11:06.834Z,83.49
2018-06-25T22:13:35.135Z,83.39
2018-06-25T22:16:03.421Z,83.76
2018-06-25T22:18:31.688Z,83.35
2018-06-25T22:20:59.977Z,83.79
2018-06-25T22:23:28.248Z,84.06
2018-06-25T22:25:56.557Z,83.30
2018-06-25T22:28:24.821Z,82.16
2018-06-25T22:30:53.149Z,81.96
2018-06-25T22:33:21.397Z,82.07
2018-06-25T22:35:49.705Z,81.24
2018-06-25T22:38:17.971Z,81.63
2018-06-25T22:40:46.353Z,81.85
2018-06-25T22:43:14.621Z,81.41
2018-06-25T22:45:42.930Z,81.14
2018-06-25T22:48:11.201Z,81.32
2018-06-25T22:50:39.613Z,81.07
2018-06-25T22:53:07.872Z,83.02
2018-06-25T22:55:37.049Z,83.17
2018-06-25T22:58:05.356Z,83.23
2018-06-25T23:00:34.116Z,83.79
2018-06-25T23:03:02.481Z,84.37
2018-06-25T23:05:30.750Z,84.99
2018-06-25T23:07:59.038Z,84.64
2018-06-25T23:10:27.313Z,83.64
2018-06-25T23:12:55.847Z,83.06
2018-06-25T23:15:24.350Z,82.52
2018-06-25T23:17:52.863Z,82.12
2018-06-25T23:20:21.129Z,81.72
2018-06-25T23:22:53.430Z,81.91
2018-06-25T23:25:21.753Z,81.56
2018-06-25T23:27:50.401Z,81.21
2018-06-25T23:30:18.686Z,82.58
2018-06-25T23:32:47.258Z,82.89
2018-06-25T23:35:15.813Z,82.60
2018-06-25T23:37:44.093Z,82.53
2018-06-25T23:40:12.369Z,82.40
2018-06-25T23:42:40.681Z,81.52
2018-06-25T23:45:09.093Z,81.19
2018-06-25T23:47:37.349Z,82.63
2018-06-25T23:50:05.805Z,82.44
2018-06-25T23:52:34.153Z,82.21
2018-06-25T23:55:02.601Z,81.89
2018-06-25T23:57:30.885Z,82.10
2018-06-25T23:59:59.160Z,83.18
